Time;durP1;ratioP1;P1;durP2;ratioP2;P2;SDS_P1;SDS_P2;PMS_P1;PMS_P2;Temp;Humidity;BMP_temperature;BMP_pressure;BME280_temperature;BME280_humidity;BME280_pressure;Samples;Min_cycle;Max_cycle;Signal;HPM_P1;HPM_P2
2021/12/17 00:01:04;;;;;;;10.60;7.95;;;9.80;78.60;;;;;;5113531;28;20483;-76
2021/12/17 00:03:40;;;;;;;13.05;8.73;;;9.80;78.80;;;;;;5111767;28;20040;-76
2021/12/17 00:06:42;;;;;;;11.18;7.82;;;9.70;78.70;;;;;;5111258;28;20480;-76
2021/12/17 00:09:02;;;;;;;10.77;7.43;;;9.70;78.70;;;;;;5110621;28;20027;-75
2021/12/17 00:11:27;;;;;;;11.55;8.15;;;9.70;78.80;;;;;;5111581;28;20032;-75
2021/12/17 00:13:55;;;;;;;11.27;7.80;;;9.70;78.90;;;;;;5111524;28;20077;-75
2021/12/17 00:16:24;;;;;;;9.90;7.18;;;9.60;78.90;;;;;;5111969;28;20020;-76
2021/12/17 00:19:05;;;;;;;11.63;7.45;;;9.60;79.00;;;;;;5111070;28;20462;-75
2021/12/17 00:48:54;;;;;;;11.20;7.80;;;9.30;79.80;;;;;;5110714;28;20034;-76
2021/12/17 00:54:07;;;;;;;12.38;8.32;;;9.30;79.90;;;;;;5110449;28;20071;-76
2021/12/17 00:56:33;;;;;;;13.13;8.88;;;9.20;79.80;;;;;;5110543;28;20028;-76
2021/12/17 00:58:59;;;;;;;13.00;8.85;;;9.20;79.80;;;;;;5119014;27;20049;-76
2021/12/17 01:01:25;;;;;;;12.02;8.70;;;9.20;80.00;;;;;;5110394;28;20155;-77
2021/12/17 01:03:51;;;;;;;11.80;8.23;;;9.20;80.00;;;;;;5110280;28;20091;-76
2021/12/17 01:06:19;;;;;;;13.93;9.18;;;9.20;80.00;;;;;;5109949;28;20023;-76
2021/12/17 01:08:45;;;;;;;13.55;9.52;;;9.10;80.00;;;;;;5110427;28;20019;-77
2021/12/17 01:11:10;;;;;;;14.80;10.95;;;9.10;80.10;;;;;;5110501;28;20031;-76
2021/12/17 01:13:38;;;;;;;15.55;11.68;;;9.10;80.20;;;;;;5109806;28;20042;-76
2021/12/17 01:16:04;;;;;;;14.35;11.05;;;9.20;80.40;;;;;;5112202;28;20504;-76
2021/12/17 01:19:00;;;;;;;15.35;10.20;;;9.10;80.30;;;;;;5110234;28;20499;-76
2021/12/17 01:21:28;;;;;;;17.67;11.27;;;9.00;80.20;;;;;;5109003;28;20515;-76
2021/12/17 01:42:49;;;;;;;13.88;9.07;;;9.00;80.90;;;;;;5033592;28;20049;-77
2021/12/17 01:45:15;;;;;;;11.52;8.13;;;9.00;80.80;;;;;;5031576;28;20065;-77
2021/12/17 01:47:41;;;;;;;12.13;8.13;;;8.90;80.60;;;;;;5031376;28;20522;-76
2021/12/17 02:00:53;;;;;;;9.45;6.65;;;8.90;80.70;;;;;;5031773;28;20040;-77
2021/12/17 02:03:19;;;;;;;8.98;6.53;;;8.90;80.70;;;;;;5030805;28;20116;-77
2021/12/17 02:05:46;;;;;;;8.98;6.72;;;8.90;80.70;;;;;;5073439;28;20077;-76
2021/12/17 02:08:12;;;;;;;12.15;7.70;;;8.90;80.80;;;;;;5113906;28;20380;-76
2021/12/17 02:22:03;;;;;;;10.70;6.88;;;8.80;80.70;;;;;;5113922;28;20076;-77
2021/12/17 02:32:18;;;;;;;10.50;6.93;;;8.80;80.70;;;;;;5111552;28;20500;-75
2021/12/17 02:37:30;;;;;;;11.80;6.45;;;8.80;80.80;;;;;;5113402;28;20143;-78
2021/12/17 02:45:31;;;;;;;10.07;6.03;;;8.70;80.90;;;;;;5113373;28;20461;-78
2021/12/17 02:45:32;;;;;;;8.93;6.20;;;8.70;80.80;;;;;;5112696;28;20451;-78
2021/12/17 02:48:13;;;;;;;11.25;6.53;;;8.70;80.80;;;;;;5093904;28;20030;-77
2021/12/17 02:50:42;;;;;;;9.48;6.55;;;8.70;80.90;;;;;;5113273;28;20027;-77
2021/12/17 02:53:08;;;;;;;9.43;6.13;;;8.60;81.00;;;;;;5113032;28;20035;-77
2021/12/17 02:55:36;;;;;;;9.25;6.35;;;8.60;80.80;;;;;;5094449;28;20055;-77
2021/12/17 02:58:05;;;;;;;12.32;6.57;;;8.70;81.20;;;;;;5121990;27;20026;-77
2021/12/17 03:00:31;;;;;;;8.75;6.20;;;8.60;80.80;;;;;;5113117;27;20027;-77
2021/12/17 03:02:58;;;;;;;9.13;6.10;;;8.60;80.70;;;;;;5112637;28;20496;-77
2021/12/17 03:05:26;;;;;;;9.15;6.18;;;8.60;81.10;;;;;;5112958;28;20031;-77
2021/12/17 03:07:52;;;;;;;9.38;5.90;;;8.60;80.80;;;;;;5112988;28;20114;-77
2021/12/17 03:10:17;;;;;;;8.93;6.40;;;8.60;80.90;;;;;;5113798;28;20099;-77
2021/12/17 03:12:49;;;;;;;9.25;6.28;;;8.50;81.10;;;;;;5112405;28;20036;-77
2021/12/17 03:26:02;;;;;;;10.02;6.18;;;8.40;80.90;;;;;;5113080;28;20027;-77
2021/12/17 03:28:29;;;;;;;10.30;6.80;;;8.40;81.00;;;;;;5112666;28;20780;-77
2021/12/17 03:30:55;;;;;;;10.73;6.15;;;8.40;81.20;;;;;;5113733;28;20095;-76
2021/12/17 03:33:21;;;;;;;10.30;6.22;;;8.40;81.20;;;;;;5111882;28;20118;-76
2021/12/17 03:35:48;;;;;;;10.90;7.28;;;8.30;80.90;;;;;;5111788;28;20027;-77
2021/12/17 03:38:15;;;;;;;10.88;7.22;;;8.30;81.10;;;;;;5111999;28;20043;-76
2021/12/17 03:40:42;;;;;;;10.07;6.88;;;8.30;81.10;;;;;;5112372;28;20099;-76
2021/12/17 03:43:12;;;;;;;10.07;6.85;;;8.30;81.30;;;;;;5110167;28;20024;-77
2021/12/17 03:45:40;;;;;;;9.48;6.55;;;8.20;81.20;;;;;;5112118;28;20080;-77
2021/12/17 03:48:07;;;;;;;10.60;6.38;;;8.20;81.40;;;;;;5111697;28;20019;-77
2021/12/17 03:50:34;;;;;;;10.88;6.68;;;8.20;81.40;;;;;;5110013;28;20505;-77
2021/12/17 03:53:00;;;;;;;11.55;7.32;;;8.20;81.40;;;;;;5111820;28;20035;-75
2021/12/17 03:55:27;;;;;;;9.90;6.95;;;8.20;81.60;;;;;;5111649;28;20089;-76
2021/12/17 03:57:52;;;;;;;9.65;6.75;;;8.20;81.50;;;;;;5119292;27;20031;-75
2021/12/17 04:00:18;;;;;;;9.82;6.75;;;8.10;81.60;;;;;;5114006;27;20024;-75
2021/12/17 04:02:45;;;;;;;10.05;5.82;;;8.10;81.40;;;;;;5110203;28;20466;-74
2021/12/17 04:05:11;;;;;;;9.98;6.60;;;8.10;81.50;;;;;;5111296;28;20030;-75
2021/12/17 04:07:37;;;;;;;9.57;6.55;;;8.10;81.80;;;;;;5111764;28;20154;-75
2021/12/17 04:10:04;;;;;;;9.00;6.43;;;8.10;81.70;;;;;;5094693;28;20445;-75
2021/12/17 04:12:55;;;;;;;12.05;7.05;;;8.10;81.90;;;;;;5111030;28;20063;-74
2021/12/17 04:15:17;;;;;;;9.63;6.22;;;8.10;81.70;;;;;;5110422;28;20111;-76
2021/12/17 04:17:48;;;;;;;12.07;6.68;;;8.10;81.50;;;;;;5111351;28;20046;-75
2021/12/17 04:20:13;;;;;;;10.23;6.68;;;8.10;81.80;;;;;;5092611;28;20019;-75
2021/12/17 04:22:39;;;;;;;11.40;7.18;;;8.10;81.80;;;;;;5111776;28;20027;-76
2021/12/17 04:25:05;;;;;;;8.98;6.25;;;8.10;81.60;;;;;;5095048;28;20075;-76
2021/12/17 04:27:31;;;;;;;10.38;6.72;;;8.10;81.80;;;;;;5110707;28;20108;-76
2021/12/17 04:29:57;;;;;;;10.45;6.60;;;8.10;81.70;;;;;;5093023;28;20054;-75
2021/12/17 04:32:23;;;;;;;9.63;6.55;;;8.10;81.60;;;;;;5111104;28;20631;-75
2021/12/17 04:34:49;;;;;;;8.63;6.25;;;8.10;81.50;;;;;;5111440;28;20102;-76
2021/12/17 04:37:15;;;;;;;9.73;6.18;;;8.00;81.40;;;;;;5112523;28;20046;-75
2021/12/17 04:39:41;;;;;;;10.52;6.45;;;8.00;81.90;;;;;;5111776;28;20559;-75
2021/12/17 04:42:15;;;;;;;10.88;6.90;;;8.10;82.60;;;;;;5110740;28;20027;-75
2021/12/17 04:44:48;;;;;;;8.63;6.20;;;8.00;81.60;;;;;;5110921;28;20031;-76
2021/12/17 04:57:57;;;;;;;9.20;6.50;;;7.80;81.50;;;;;;5116619;27;20031;-76
2021/12/17 05:00:26;;;;;;;9.85;6.25;;;7.80;81.70;;;;;;5092458;28;20030;-77
2021/12/17 05:02:54;;;;;;;10.18;6.63;;;7.80;82.00;;;;;;5110894;28;20149;-76
2021/12/17 05:05:25;;;;;;;10.25;6.57;;;7.80;82.10;;;;;;5110886;28;20031;-76
2021/12/17 05:07:59;;;;;;;9.98;6.80;;;7.70;81.90;;;;;;5109646;28;20028;-76
2021/12/17 05:10:53;;;;;;;10.05;6.38;;;7.70;82.20;;;;;;5110176;28;20031;-76
2021/12/17 05:21:14;;;;;;;9.35;6.43;;;7.60;82.30;;;;;;5110560;28;20031;-76
2021/12/17 05:23:43;;;;;;;11.32;6.75;;;7.60;82.40;;;;;;5092120;28;20413;-76
2021/12/17 05:26:12;;;;;;;12.05;7.13;;;7.60;82.30;;;;;;5110084;28;20023;-76
2021/12/17 05:28:38;;;;;;;10.27;6.82;;;7.60;82.60;;;;;;5110348;28;20032;-77
2021/12/17 05:31:04;;;;;;;12.48;6.90;;;7.60;82.40;;;;;;5112546;28;20073;-76
2021/12/17 05:33:30;;;;;;;10.88;7.05;;;7.60;82.40;;;;;;5110309;28;20040;-77
2021/12/17 05:35:56;;;;;;;9.75;6.47;;;7.60;82.40;;;;;;5110547;28;20416;-77
2021/12/17 05:38:25;;;;;;;12.38;6.30;;;7.60;82.30;;;;;;5110378;28;20032;-75
2021/12/17 05:40:52;;;;;;;11.73;6.93;;;7.60;82.40;;;;;;5110115;28;20094;-75
2021/12/17 05:43:18;;;;;;;9.93;6.45;;;7.60;82.50;;;;;;5111733;28;20027;-76
2021/12/17 05:46:02;;;;;;;10.48;6.05;;;7.60;83.50;;;;;;5111240;28;20024;-75
2021/12/17 05:48:27;;;;;;;;;;;7.60;82.50;;;;;;5092453;28;20024;-75
2021/12/17 05:50:56;;;;;;;9.07;5.75;;;7.60;82.40;;;;;;5110241;28;19930;-75
2021/12/17 05:53:22;;;;;;;8.98;6.28;;;7.60;82.30;;;;;;5110151;28;20028;-75
2021/12/17 05:55:49;;;;;;;9.80;6.68;;;7.50;82.40;;;;;;5109845;28;20043;-76
2021/12/17 05:58:15;;;;;;;11.98;6.97;;;7.50;82.40;;;;;;5111482;28;20031;-77
2021/12/17 06:00:42;;;;;;;12.57;7.50;;;7.50;82.50;;;;;;5092544;28;20502;-76
2021/12/17 06:03:08;;;;;;;10.48;7.35;;;7.50;82.70;;;;;;5091724;28;20035;-76
2021/12/17 06:05:34;;;;;;;9.63;5.97;;;7.50;82.90;;;;;;5091722;28;20399;-76
2021/12/17 06:08:01;;;;;;;10.93;6.93;;;7.50;82.80;;;;;;5109448;28;20043;-76
2021/12/17 06:10:27;;;;;;;10.00;6.57;;;7.60;82.80;;;;;;5090742;28;20435;-76
2021/12/17 06:12:53;;;;;;;9.75;6.30;;;7.60;82.90;;;;;;5111818;28;20537;-76
2021/12/17 06:15:21;;;;;;;11.00;6.28;;;7.60;82.80;;;;;;5109693;28;20020;-75
2021/12/17 06:17:48;;;;;;;9.63;6.38;;;7.60;82.70;;;;;;5109886;28;20031;-77
2021/12/17 06:20:15;;;;;;;9.57;6.45;;;7.60;82.60;;;;;;5091709;28;20396;-76
2021/12/17 06:22:41;;;;;;;12.02;7.00;;;7.60;82.50;;;;;;5097818;28;20026;-77
2021/12/17 06:25:09;;;;;;;9.65;6.60;;;7.50;82.50;;;;;;5115275;28;20015;-76
2021/12/17 06:27:35;;;;;;;11.23;6.63;;;7.50;82.60;;;;;;5111738;28;20396;-76
2021/12/17 06:30:02;;;;;;;10.95;7.22;;;7.50;82.90;;;;;;5113133;28;20098;-76
2021/12/17 06:32:28;;;;;;;10.30;6.35;;;7.40;82.70;;;;;;5112966;28;20040;-76
2021/12/17 06:34:54;;;;;;;11.65;7.10;;;7.30;82.60;;;;;;5112825;28;20032;-76
2021/12/17 06:37:21;;;;;;;11.57;7.65;;;7.40;82.90;;;;;;5114298;28;20020;-76
2021/12/17 06:39:48;;;;;;;10.63;7.15;;;7.40;82.80;;;;;;5114036;28;20107;-76
2021/12/17 06:42:14;;;;;;;10.52;7.07;;;7.30;82.70;;;;;;5093977;28;20024;-76
2021/12/17 06:44:41;;;;;;;10.52;7.63;;;7.30;82.80;;;;;;5113022;28;20020;-76
2021/12/17 06:55:17;;;;;;;9.95;7.18;;;7.20;82.60;;;;;;5113758;28;20144;-77
2021/12/17 07:10:47;;;;;;;10.10;6.80;;;7.10;83.50;;;;;;5097359;28;20024;-76
2021/12/17 07:21:40;;;;;;;12.52;7.07;;;7.10;83.40;;;;;;5112290;28;20424;-77
2021/12/17 07:31:30;;;;;;;11.50;7.43;;;7.00;83.50;;;;;;5111601;27;20177;-75
2021/12/17 07:32:31;;;;;;;9.02;6.10;;;7.10;83.80;;;;;;5093302;27;20128;-75
2021/12/17 07:40:06;;;;;;;10.60;6.47;;;7.10;83.60;;;;;;5094603;27;20036;-76
2021/12/17 07:42:32;;;;;;;10.85;6.60;;;7.00;83.50;;;;;;5087683;28;20460;-76
2021/12/17 07:44:57;;;;;;;10.35;6.78;;;7.00;83.70;;;;;;5109340;28;20107;-76
2021/12/17 07:47:24;;;;;;;11.77;7.22;;;7.00;84.00;;;;;;5093053;28;20024;-76
2021/12/17 07:49:50;;;;;;;10.77;7.28;;;7.00;84.00;;;;;;5106832;28;20511;-77
2021/12/17 07:52:15;;;;;;;11.60;7.40;;;7.10;84.00;;;;;;5109355;28;20093;-76
2021/12/17 07:54:41;;;;;;;12.85;7.97;;;7.10;84.00;;;;;;5112365;28;20062;-75
2021/12/17 07:57:07;;;;;;;11.90;7.55;;;7.10;83.90;;;;;;5093364;28;20019;-76
2021/12/17 07:59:33;;;;;;;12.57;6.97;;;7.10;83.80;;;;;;5111794;28;20052;-75
2021/12/17 08:01:58;;;;;;;11.88;7.25;;;7.20;83.90;;;;;;5111549;28;20031;-76
2021/12/17 08:04:25;;;;;;;11.52;7.13;;;7.20;83.70;;;;;;5111645;28;20115;-76
2021/12/17 08:06:51;;;;;;;10.77;6.90;;;7.30;84.00;;;;;;5112639;28;20027;-76
2021/12/17 08:09:18;;;;;;;10.55;6.90;;;7.40;84.10;;;;;;5111548;28;20019;-76
2021/12/17 08:11:44;;;;;;;11.40;7.40;;;7.40;84.20;;;;;;5109460;28;20444;-76
2021/12/17 08:14:13;;;;;;;10.77;7.40;;;7.60;84.10;;;;;;5100458;28;20567;-76
2021/12/17 08:30:21;;;;;;;12.00;8.07;;;8.50;82.70;;;;;;5064403;28;20032;-74
2021/12/17 08:32:48;;;;;;;10.85;7.72;;;8.70;82.50;;;;;;5064528;28;20032;-76
2021/12/17 08:35:14;;;;;;;12.57;8.13;;;8.90;82.50;;;;;;5064097;28;20021;-75
2021/12/17 08:37:40;;;;;;;11.15;8.07;;;9.10;81.80;;;;;;5051549;28;20036;-76
2021/12/17 08:40:07;;;;;;;12.38;8.63;;;9.30;81.70;;;;;;5065794;28;20107;-75
2021/12/17 08:42:33;;;;;;;12.75;8.13;;;9.50;81.40;;;;;;5064881;28;20025;-74
2021/12/17 08:45:00;;;;;;;12.50;8.50;;;9.70;80.50;;;;;;5069167;28;20028;-68
2021/12/17 08:47:25;;;;;;;11.50;8.27;;;9.80;79.90;;;;;;5069180;28;20485;-67
2021/12/17 08:49:53;;;;;;;13.45;8.45;;;9.70;79.60;;;;;;5066597;28;20043;-67
2021/12/17 08:52:19;;;;;;;12.35;8.50;;;9.50;78.80;;;;;;5066093;28;20031;-66
2021/12/17 08:54:44;;;;;;;13.55;9.23;;;9.60;80.30;;;;;;5064849;28;20048;-67
2021/12/17 08:57:10;;;;;;;13.25;9.07;;;9.60;79.00;;;;;;5103944;28;20047;-66
2021/12/17 08:59:36;;;;;;;12.73;8.57;;;9.70;79.40;;;;;;5110273;28;20103;-66
2021/12/17 09:02:03;;;;;;;13.88;8.63;;;9.90;79.40;;;;;;5108896;28;20035;-66
2021/12/17 09:04:29;;;;;;;13.45;8.73;;;10.00;79.10;;;;;;5109707;28;20480;-66
2021/12/17 09:06:55;;;;;;;13.15;8.80;;;10.10;79.50;;;;;;5112291;28;20030;-66
2021/12/17 09:09:22;;;;;;;13.02;9.02;;;10.30;78.60;;;;;;5094884;28;20084;-60
2021/12/17 09:11:49;;;;;;;13.00;9.38;;;10.40;78.70;;;;;;5098496;28;20589;-60
2021/12/17 09:14:19;;;;;;;13.93;9.57;;;10.40;79.20;;;;;;5115997;27;20066;-60
2021/12/17 09:16:46;;;;;;;17.15;9.50;;;10.50;78.00;;;;;;5111074;27;20028;-60
2021/12/17 09:19:11;;;;;;;15.32;9.52;;;10.70;78.10;;;;;;5110972;28;20019;-61
2021/12/17 09:21:37;;;;;;;12.85;9.05;;;10.80;77.60;;;;;;5109225;28;20035;-60
2021/12/17 09:24:03;;;;;;;12.80;9.40;;;11.00;77.40;;;;;;5105796;28;20128;-60
2021/12/17 09:26:32;;;;;;;14.18;9.32;;;11.10;78.60;;;;;;5114503;28;20031;-61
2021/12/17 09:28:57;;;;;;;14.57;9.63;;;11.30;77.40;;;;;;5107294;28;20043;-61
2021/12/17 09:31:23;;;;;;;14.48;9.80;;;11.50;76.60;;;;;;5109010;28;20019;-65
2021/12/17 09:33:49;;;;;;;14.95;9.57;;;11.70;77.00;;;;;;5108548;28;20073;-62
2021/12/17 09:36:17;;;;;;;15.07;10.13;;;11.90;76.40;;;;;;5107247;28;20020;-69
2021/12/17 09:38:42;;;;;;;12.63;9.15;;;12.10;76.60;;;;;;5108026;28;20503;-69
2021/12/17 09:41:09;;;;;;;15.32;10.50;;;12.30;75.60;;;;;;5108595;28;20016;-69
2021/12/17 09:43:36;;;;;;;15.07;9.13;;;12.50;75.40;;;;;;5122634;27;20040;-70
2021/12/17 09:46:05;;;;;;;14.13;9.52;;;12.70;74.10;;;;;;5111157;28;20012;-69
2021/12/17 09:48:32;;;;;;;13.55;9.75;;;12.80;73.90;;;;;;5095534;28;20507;-70
2021/12/17 09:50:59;;;;;;;12.40;9.00;;;13.00;74.40;;;;;;5107039;28;20112;-69
2021/12/17 09:53:24;;;;;;;13.52;9.52;;;13.10;73.30;;;;;;5108589;28;20062;-68
2021/12/17 09:55:51;;;;;;;13.63;9.13;;;13.20;73.00;;;;;;5089087;28;20048;-68
2021/12/17 09:58:17;;;;;;;13.65;9.32;;;13.40;72.30;;;;;;5098810;28;20028;-68
2021/12/17 10:00:43;;;;;;;13.57;9.48;;;13.60;72.00;;;;;;5113528;28;20031;-68
2021/12/17 10:03:09;;;;;;;14.35;10.10;;;13.70;71.60;;;;;;5110727;28;20028;-71
2021/12/17 10:05:38;;;;;;;13.88;9.77;;;13.80;71.80;;;;;;5118591;27;20055;-70
2021/12/17 10:08:16;;;;;;;13.57;9.85;;;14.00;71.50;;;;;;5111738;28;20024;-69
2021/12/17 10:10:45;;;;;;;14.00;9.95;;;14.00;69.60;;;;;;5096320;28;20043;-69
2021/12/17 10:13:14;;;;;;;15.02;10.48;;;14.10;69.70;;;;;;5114565;28;20096;-69
2021/12/17 10:15:43;;;;;;;12.52;9.68;;;14.10;69.10;;;;;;5116176;27;20027;-68
2021/12/17 10:18:09;;;;;;;12.95;9.52;;;14.10;69.60;;;;;;5107959;28;20038;-68
2021/12/17 10:20:57;;;;;;;15.15;10.07;;;14.20;69.30;;;;;;5111893;28;20114;-68
2021/12/17 10:23:24;;;;;;;12.10;9.70;;;14.40;69.90;;;;;;5110823;28;20031;-69
2021/12/17 10:25:51;;;;;;;16.33;10.10;;;14.60;68.00;;;;;;5112024;28;20431;-70
2021/12/17 10:28:17;;;;;;;14.27;10.23;;;14.70;69.50;;;;;;5113263;27;20092;-69
2021/12/17 10:30:46;;;;;;;15.02;10.68;;;14.70;67.20;;;;;;5110845;28;20031;-69
2021/12/17 10:33:17;;;;;;;15.40;10.18;;;14.80;68.20;;;;;;5110475;28;20036;-69
2021/12/17 10:35:46;;;;;;;14.30;9.23;;;14.80;66.90;;;;;;5131242;27;20027;-71
2021/12/17 10:38:15;;;;;;;13.13;9.15;;;14.90;67.20;;;;;;5108587;28;20027;-69
2021/12/17 10:40:49;;;;;;;14.45;9.85;;;15.00;67.50;;;;;;5093061;28;20020;-69
2021/12/17 10:43:26;;;;;;;13.38;9.75;;;15.10;66.60;;;;;;5108670;28;20395;-68
2021/12/17 10:46:02;;;;;;;14.20;9.90;;;15.00;66.00;;;;;;5111301;28;20494;-70
2021/12/17 10:51:13;;;;;;;12.70;9.43;;;15.00;67.30;;;;;;5109774;28;20115;-69
2021/12/17 10:53:44;;;;;;;13.70;9.55;;;15.00;66.50;;;;;;5109671;28;20036;-69
2021/12/17 10:56:16;;;;;;;12.85;9.38;;;15.00;67.40;;;;;;5112784;27;20059;-70
2021/12/17 10:59:02;;;;;;;12.75;8.73;;;15.20;66.40;;;;;;5120405;27;20027;-68
2021/12/17 11:01:31;;;;;;;13.55;9.57;;;15.50;66.70;;;;;;5109992;28;20024;-67
2021/12/17 11:04:11;;;;;;;12.43;9.00;;;15.60;65.80;;;;;;5111499;28;20115;-67
2021/12/17 11:06:51;;;;;;;13.50;9.48;;;15.70;64.90;;;;;;5109369;28;20036;-66
2021/12/17 11:09:37;;;;;;;15.43;9.98;;;15.80;65.10;;;;;;5110397;28;20095;-67
2021/12/17 11:12:33;;;;;;;12.02;9.05;;;15.90;65.50;;;;;;5109622;28;20024;-68
2021/12/17 11:15:24;;;;;;;13.23;9.90;;;15.90;64.50;;;;;;5114899;27;20119;-70
2021/12/17 11:17:56;;;;;;;12.25;8.45;;;15.80;64.90;;;;;;5114723;27;20026;-74
2021/12/17 11:20:26;;;;;;;11.88;9.18;;;15.60;63.80;;;;;;5108997;28;20130;-71
2021/12/17 11:22:54;;;;;;;13.00;9.10;;;15.80;64.00;;;;;;5109957;28;20038;-70
2021/12/17 11:25:21;;;;;;;12.60;9.13;;;15.60;63.10;;;;;;5095495;28;20031;-69
2021/12/17 11:27:47;;;;;;;10.93;8.02;;;15.60;61.80;;;;;;5112042;28;20444;-67
2021/12/17 11:30:17;;;;;;;12.20;8.50;;;15.50;63.70;;;;;;5110397;28;20020;-70
2021/12/17 11:32:44;;;;;;;12.90;10.25;;;15.70;64.90;;;;;;5110400;28;20063;-67
2021/12/17 11:35:11;;;;;;;11.57;9.15;;;15.70;61.70;;;;;;5109184;28;20036;-67
2021/12/17 11:37:42;;;;;;;12.00;9.20;;;15.70;63.10;;;;;;5111302;28;20047;-70
2021/12/17 11:40:17;;;;;;;12.15;8.63;;;15.70;63.10;;;;;;5096580;28;20381;-68
2021/12/17 11:43:14;;;;;;;12.18;9.27;;;15.80;63.60;;;;;;5111228;28;20028;-67
2021/12/17 11:45:41;;;;;;;11.75;8.35;;;15.90;63.80;;;;;;5110461;28;20053;-67
2021/12/17 11:48:22;;;;;;;10.05;8.13;;;15.90;63.60;;;;;;5108409;28;20091;-66
2021/12/17 11:51:13;;;;;;;11.82;9.07;;;15.90;63.80;;;;;;5104612;28;20038;-71
2021/12/17 11:54:15;;;;;;;11.02;8.30;;;16.20;65.40;;;;;;5107063;27;20038;-71
2021/12/17 11:57:17;;;;;;;10.82;8.38;;;16.50;62.40;;;;;;5089368;28;20040;-72
2021/12/17 11:59:45;;;;;;;10.52;8.80;;;16.20;62.40;;;;;;5092155;28;20046;-71
2021/12/17 12:02:19;;;;;;;11.63;8.63;;;16.50;63.10;;;;;;5098553;27;20023;-70
2021/12/17 12:04:49;;;;;;;11.55;8.98;;;16.60;60.70;;;;;;5094200;28;20024;-71
2021/12/17 12:07:24;;;;;;;11.73;9.00;;;16.40;60.50;;;;;;5097324;28;20096;-69
2021/12/17 12:10:09;;;;;;;11.07;8.43;;;16.30;61.00;;;;;;5112175;28;20028;-70
2021/12/17 12:12:34;;;;;;;11.43;8.00;;;16.20;61.30;;;;;;5109011;28;20404;-71
2021/12/17 12:15:28;;;;;;;11.40;8.82;;;16.30;61.70;;;;;;5109170;28;20023;-69
2021/12/17 12:18:15;;;;;;;11.93;9.07;;;16.30;61.70;;;;;;5112377;27;20515;-69
2021/12/17 12:20:50;;;;;;;10.55;8.50;;;16.00;60.70;;;;;;5108248;28;20016;-68
2021/12/17 12:23:19;;;;;;;12.50;9.52;;;16.10;61.10;;;;;;5091390;28;20029;-69
2021/12/17 12:25:46;;;;;;;12.10;9.15;;;16.10;60.90;;;;;;5089758;28;20027;-71
2021/12/17 12:28:16;;;;;;;12.45;9.77;;;16.20;60.80;;;;;;5111056;28;20020;-70
2021/12/17 12:30:44;;;;;;;11.20;9.25;;;16.10;60.20;;;;;;5108919;28;20024;-70
2021/12/17 12:33:14;;;;;;;12.25;8.82;;;16.20;61.00;;;;;;5109716;28;20031;-66
2021/12/17 12:35:39;;;;;;;11.57;9.02;;;16.20;60.80;;;;;;5097429;28;20038;-67
2021/12/17 12:38:20;;;;;;;10.15;8.57;;;16.30;61.60;;;;;;5110213;28;20023;-67
2021/12/17 12:40:55;;;;;;;11.35;8.23;;;16.40;60.90;;;;;;5094117;28;20499;-68
2021/12/17 12:43:31;;;;;;;11.45;8.13;;;16.20;60.10;;;;;;5110998;28;20023;-68
2021/12/17 12:45:57;;;;;;;11.18;8.85;;;16.10;61.10;;;;;;5121753;27;20477;-68
2021/12/17 12:48:39;;;;;;;10.25;8.40;;;16.00;59.60;;;;;;5107600;28;20488;-68
2021/12/17 12:51:16;;;;;;;11.27;8.80;;;15.50;59.60;;;;;;5102041;28;20027;-67
2021/12/17 12:54:06;;;;;;;11.95;8.52;;;15.30;60.70;;;;;;5102097;28;20031;-67
2021/12/17 12:56:32;;;;;;;10.82;8.45;;;15.30;62.50;;;;;;5109523;28;20039;-68
2021/12/17 12:58:58;;;;;;;10.65;8.63;;;15.20;62.40;;;;;;5108980;28;20042;-68
2021/12/17 13:01:24;;;;;;;10.75;8.25;;;15.40;62.60;;;;;;5110057;28;20531;-68
2021/12/17 13:03:50;;;;;;;11.98;8.20;;;15.30;62.10;;;;;;5111000;28;20019;-72
2021/12/17 13:06:18;;;;;;;12.40;9.20;;;15.00;61.40;;;;;;5107109;28;20529;-72
2021/12/17 13:08:55;;;;;;;12.25;8.90;;;14.40;61.70;;;;;;5108946;28;20023;-70
2021/12/17 13:11:21;;;;;;;12.82;8.88;;;13.90;62.80;;;;;;5094076;28;20054;-69
2021/12/17 13:13:56;;;;;;;11.82;8.55;;;13.60;64.40;;;;;;5107785;28;20039;-70
2021/12/17 13:21:59;;;;;;;12.88;8.35;;;13.10;66.00;;;;;;5110189;28;20074;-68
2021/12/17 13:24:28;;;;;;;12.73;8.13;;;12.90;66.40;;;;;;5107325;28;20042;-70
2021/12/17 13:27:10;;;;;;;11.45;8.38;;;12.80;67.30;;;;;;5107138;28;20043;-70
2021/12/17 13:29:41;;;;;;;11.63;7.70;;;12.80;67.50;;;;;;5108126;28;20395;-72
2021/12/17 13:32:12;;;;;;;11.25;8.00;;;12.60;67.10;;;;;;5107174;28;20450;-67
2021/12/17 13:34:43;;;;;;;11.10;7.72;;;12.50;68.00;;;;;;5107844;28;20507;-68
2021/12/17 13:37:16;;;;;;;11.15;7.55;;;12.40;68.40;;;;;;5106871;28;20083;-68
2021/12/17 13:39:41;;;;;;;10.65;7.57;;;12.30;69.00;;;;;;5108388;28;20035;-68
2021/12/17 13:42:09;;;;;;;10.73;7.47;;;12.20;69.30;;;;;;5107724;28;20028;-64
2021/12/17 13:44:37;;;;;;;12.43;8.85;;;12.20;69.40;;;;;;5107673;28;20026;-65
2021/12/17 13:47:21;;;;;;;13.13;7.75;;;12.20;69.60;;;;;;5088472;28;20024;-65
2021/12/17 13:49:59;;;;;;;10.75;6.80;;;12.20;69.80;;;;;;5088909;28;20059;-64
2021/12/17 13:52:29;;;;;;;12.40;7.65;;;12.10;70.00;;;;;;5108590;28;20031;-64
2021/12/17 13:54:57;;;;;;;12.75;7.97;;;11.90;69.80;;;;;;5107922;28;20082;-65
2021/12/17 13:57:25;;;;;;;11.25;7.07;;;11.90;70.40;;;;;;5106706;28;20039;-65
2021/12/17 13:59:51;;;;;;;11.00;7.13;;;11.80;70.30;;;;;;5107151;28;20041;-65
2021/12/17 14:02:20;;;;;;;13.18;8.25;;;11.80;70.80;;;;;;5107553;28;20035;-65
2021/12/17 14:05:07;;;;;;;12.18;6.97;;;11.70;71.60;;;;;;5107160;28;20170;-75
2021/12/17 14:07:36;;;;;;;11.55;7.10;;;11.60;71.20;;;;;;5107880;28;20024;-74
2021/12/17 14:10:10;;;;;;;10.93;6.63;;;11.60;71.60;;;;;;5110495;28;20054;-72
2021/12/17 14:12:39;;;;;;;11.07;6.90;;;11.60;71.80;;;;;;5107413;28;20085;-74
2021/12/17 14:15:12;;;;;;;11.07;6.65;;;11.50;71.80;;;;;;5107104;28;20024;-73
2021/12/17 14:17:40;;;;;;;11.20;6.63;;;11.60;72.10;;;;;;5111026;27;20019;-72
2021/12/17 14:20:10;;;;;;;12.75;7.53;;;11.50;71.80;;;;;;5106712;28;20523;-71
2021/12/17 14:22:38;;;;;;;9.77;6.70;;;11.40;72.10;;;;;;5108099;28;20024;-69
2021/12/17 14:25:31;;;;;;;11.00;6.53;;;11.50;72.60;;;;;;5110714;28;20028;-68
2021/12/17 14:28:00;;;;;;;10.75;6.50;;;11.50;72.60;;;;;;5109501;28;20031;-63
2021/12/17 14:30:33;;;;;;;12.07;7.47;;;11.40;72.20;;;;;;5106631;28;20114;-64
2021/12/17 14:33:09;;;;;;;12.60;7.72;;;11.30;72.70;;;;;;5106772;28;20032;-64
2021/12/17 14:35:42;;;;;;;11.00;6.80;;;11.30;73.20;;;;;;5106751;28;20023;-64
2021/12/17 14:38:08;;;;;;;11.02;6.90;;;11.30;73.10;;;;;;5107793;28;20115;-64
2021/12/17 14:40:42;;;;;;;11.25;6.80;;;11.20;73.00;;;;;;5108224;28;20140;-64
2021/12/17 14:43:30;;;;;;;10.75;6.65;;;11.20;73.70;;;;;;5109811;28;20028;-64
2021/12/17 14:46:25;;;;;;;10.43;6.57;;;11.20;73.30;;;;;;5113006;28;20077;-64
2021/12/17 14:49:13;;;;;;;11.52;6.95;;;11.30;73.30;;;;;;5113733;28;20488;-64
2021/12/17 15:02:59;;;;;;;12.18;6.50;;;11.30;74.10;;;;;;5113664;27;20131;-65
2021/12/17 15:05:28;;;;;;;10.23;6.30;;;11.20;73.50;;;;;;5110796;28;20102;-65
2021/12/17 15:07:55;;;;;;;12.43;6.32;;;11.20;74.10;;;;;;5105144;28;20028;-64
2021/12/17 15:10:23;;;;;;;10.45;5.93;;;11.10;74.40;;;;;;5111998;28;20031;-65
2021/12/17 15:12:55;;;;;;;10.32;6.63;;;11.10;74.30;;;;;;5111283;28;20035;-65
2021/12/17 15:15:24;;;;;;;11.98;7.07;;;11.00;74.60;;;;;;5110921;27;20020;-65
2021/12/17 15:17:52;;;;;;;10.60;6.85;;;11.00;74.60;;;;;;5110455;27;20092;-64
2021/12/17 15:20:23;;;;;;;13.27;7.55;;;11.10;75.00;;;;;;5108872;28;20030;-65
2021/12/17 15:22:50;;;;;;;12.25;7.30;;;11.20;74.90;;;;;;5110166;28;20484;-64
2021/12/17 15:25:16;;;;;;;11.98;7.38;;;11.10;74.50;;;;;;5112680;28;20019;-64
2021/12/17 15:27:42;;;;;;;10.70;6.50;;;11.20;74.60;;;;;;5111957;28;20023;-64
2021/12/17 15:30:24;;;;;;;11.27;7.20;;;11.10;74.50;;;;;;5095510;28;20031;-64
2021/12/17 15:32:50;;;;;;;11.68;7.13;;;11.10;75.40;;;;;;5109029;28;20039;-64
2021/12/17 15:35:19;;;;;;;12.25;6.78;;;11.20;75.10;;;;;;5110411;28;20508;-64
2021/12/17 15:37:46;;;;;;;11.68;6.25;;;11.10;74.80;;;;;;5109296;28;20028;-64
2021/12/17 15:40:13;;;;;;;13.38;6.88;;;11.00;74.80;;;;;;5112647;28;20023;-63
2021/12/17 15:42:39;;;;;;;10.77;6.82;;;10.90;74.90;;;;;;5109542;28;20034;-63
2021/12/17 15:45:06;;;;;;;10.38;6.53;;;10.90;75.30;;;;;;5109004;28;20028;-64
2021/12/17 15:47:32;;;;;;;9.07;5.85;;;10.80;75.40;;;;;;5109552;28;20092;-64
2021/12/17 15:49:58;;;;;;;12.30;7.43;;;10.80;75.60;;;;;;5109268;28;20443;-64
2021/12/17 15:52:23;;;;;;;13.10;7.63;;;10.80;75.60;;;;;;5111325;28;20055;-64
2021/12/17 15:54:49;;;;;;;12.20;7.03;;;10.70;76.10;;;;;;5109800;28;20504;-64
2021/12/17 15:57:16;;;;;;;10.30;6.47;;;10.70;76.10;;;;;;5109212;28;20108;-64
2021/12/17 15:59:43;;;;;;;13.13;7.13;;;10.70;76.30;;;;;;5109912;28;20062;-64
2021/12/17 16:02:09;;;;;;;12.35;7.18;;;10.70;76.20;;;;;;5109933;28;20030;-65
2021/12/17 16:04:39;;;;;;;11.95;6.72;;;10.70;76.20;;;;;;5109695;28;20028;-64